sensor_id;sensor_type;location;lat;lon;timestamp;pressure;altitude;pressure_sealevel;temperature;humidity
63903;BME280;50072;50.678;13.938;2024-02-15T00:00:12;99924.72;;;6.26;100.00
63903;BME280;50072;50.678;13.938;2024-02-15T00:03:12;99954.84;;;6.19;100.00
63903;BME280;50072;50.678;13.938;2024-02-15T00:05:45;99952.22;;;6.10;100.00
63903;BME280;50072;50.678;13.938;2024-02-15T00:08:12;99940.75;;;6.01;100.00
63903;BME280;50072;50.678;13.938;2024-02-15T00:10:42;99944.25;;;6.10;100.00
63903;BME280;50072;50.678;13.938;2024-02-15T00:13:12;99941.56;;;6.22;100.00
63903;BME280;50072;50.678;13.938;2024-02-15T00:15:39;99939.81;;;6.15;100.00
63903;BME280;50072;50.678;13.938;2024-02-15T00:18:12;99940.72;;;6.08;100.00
63903;BME280;50072;50.678;13.938;2024-02-15T00:20:42;99931.84;;;6.15;100.00
63903;BME280;50072;50.678;13.938;2024-02-15T00:23:12;99941.56;;;6.17;100.00
63903;BME280;50072;50.678;13.938;2024-02-15T00:25:38;99943.34;;;6.20;100.00
63903;BME280;50072;50.678;13.938;2024-02-15T00:28:11;99931.84;;;6.12;100.00
63903;BME280;50072;50.678;13.938;2024-02-15T00:30:44;99922.94;;;6.25;100.00
63903;BME280;50072;50.678;13.938;2024-02-15T00:33:12;99929.09;;;6.35;100.00
63903;BME280;50072;50.678;13.938;2024-02-15T00:35:41;99919.38;;;6.38;100.00
63903;BME280;50072;50.678;13.938;2024-02-15T00:38:12;99927.31;;;6.42;100.00
63903;BME280;50072;50.678;13.938;2024-02-15T00:40:42;99930.81;;;6.50;100.00
63903;BME280;50072;50.678;13.938;2024-02-15T00:43:14;99937.03;;;6.52;100.00
63903;BME280;50072;50.678;13.938;2024-02-15T00:45:42;99930.84;;;6.51;100.00
63903;BME280;50072;50.678;13.938;2024-02-15T00:48:09;99933.47;;;6.50;100.00
63903;BME280;50072;50.678;13.938;2024-02-15T00:50:42;99937.00;;;6.56;100.00
63903;BME280;50072;50.678;13.938;2024-02-15T00:53:14;99940.53;;;6.54;100.00
63903;BME280;50072;50.678;13.938;2024-02-15T00:55:42;99940.56;;;6.49;100.00
63903;BME280;50072;50.678;13.938;2024-02-15T00:58:12;99932.56;;;6.55;100.00
63903;BME280;50072;50.678;13.938;2024-02-15T01:00:42;99942.28;;;6.61;100.00
63903;BME280;50072;50.678;13.938;2024-02-15T01:03:11;99931.66;;;6.58;100.00
63903;BME280;50072;50.678;13.938;2024-02-15T01:05:43;99927.25;;;6.55;100.00
63903;BME280;50072;50.678;13.938;2024-02-15T01:08:12;99938.78;;;6.56;100.00
63903;BME280;50072;50.678;13.938;2024-02-15T01:10:43;99926.44;;;6.39;100.00
63903;BME280;50072;50.678;13.938;2024-02-15T01:13:12;99922.00;;;6.40;100.00
63903;BME280;50072;50.678;13.938;2024-02-15T01:15:44;99930.84;;;6.51;100.00
63903;BME280;50072;50.678;13.938;2024-02-15T01:18:12;99936.13;;;6.48;100.00
63903;BME280;50072;50.678;13.938;2024-02-15T01:20:43;99925.53;;;6.41;100.00
63903;BME280;50072;50.678;13.938;2024-02-15T01:23:12;99924.66;;;6.45;100.00
63903;BME280;50072;50.678;13.938;2024-02-15T01:25:44;99919.31;;;6.48;100.00
63903;BME280;50072;50.678;13.938;2024-02-15T01:28:12;99910.41;;;6.53;100.00
63903;BME280;50072;50.678;13.938;2024-02-15T01:30:43;99913.03;;;6.61;100.00
63903;BME280;50072;50.678;13.938;2024-02-15T01:33:12;99910.38;;;6.60;100.00
63903;BME280;50072;50.678;13.938;2024-02-15T01:35:43;99909.47;;;6.65;100.00
63903;BME280;50072;50.678;13.938;2024-02-15T01:38:12;99913.91;;;6.66;100.00
63903;BME280;50072;50.678;13.938;2024-02-15T01:40:43;99915.66;;;6.70;100.00
63903;BME280;50072;50.678;13.938;2024-02-15T01:43:12;99913.84;;;6.72;100.00
63903;BME280;50072;50.678;13.938;2024-02-15T01:45:42;99902.38;;;6.69;100.00
63903;BME280;50072;50.678;13.938;2024-02-15T01:48:08;99912.13;;;6.70;100.00
63903;BME280;50072;50.678;13.938;2024-02-15T01:50:42;99905.03;;;6.67;100.00
63903;BME280;50072;50.678;13.938;2024-02-15T01:53:10;99915.69;;;6.67;100.00
63903;BME280;50072;50.678;13.938;2024-02-15T01:55:42;99916.53;;;6.76;100.00
63903;BME280;50072;50.678;13.938;2024-02-15T01:58:12;99897.91;;;6.77;100.00
63903;BME280;50072;50.678;13.938;2024-02-15T02:00:44;99904.94;;;6.80;100.00
63903;BME280;50072;50.678;13.938;2024-02-15T02:03:14;99909.38;;;6.82;100.00
63903;BME280;50072;50.678;13.938;2024-02-15T02:05:42;99916.47;;;6.82;100.00
63903;BME280;50072;50.678;13.938;2024-02-15T02:08:11;99904.06;;;6.79;100.00
63903;BME280;50072;50.678;13.938;2024-02-15T02:10:42;99901.41;;;6.81;100.00
63903;BME280;50072;50.678;13.938;2024-02-15T02:13:12;99911.19;;;6.80;100.00
63903;BME280;50072;50.678;13.938;2024-02-15T02:15:44;99900.53;;;6.79;100.00
63903;BME280;50072;50.678;13.938;2024-02-15T02:18:12;99905.84;;;6.82;100.00
63903;BME280;50072;50.678;13.938;2024-02-15T02:20:42;99901.44;;;6.74;100.00
63903;BME280;50072;50.678;13.938;2024-02-15T02:23:15;99902.34;;;6.70;100.00
63903;BME280;50072;50.678;13.938;2024-02-15T02:25:42;99911.19;;;6.74;100.00
63903;BME280;50072;50.678;13.938;2024-02-15T02:28:11;99901.41;;;6.79;100.00
63903;BME280;50072;50.678;13.938;2024-02-15T02:30:43;99913.00;;;6.70;100.00
63903;BME280;50072;50.678;13.938;2024-02-15T02:33:12;99910.38;;;6.67;100.00
63903;BME280;50072;50.678;13.938;2024-02-15T02:36:12;99908.53;;;6.77;100.00
63903;BME280;50072;50.678;13.938;2024-02-15T02:38:44;99901.44;;;6.74;100.00
63903;BME280;50072;50.678;13.938;2024-02-15T02:41:24;99905.03;;;6.70;100.00
63903;BME280;50072;50.678;13.938;2024-02-15T02:43:52;99905.06;;;6.64;100.00
63903;BME280;50072;50.678;13.938;2024-02-15T02:46:24;99903.31;;;6.60;100.00
63903;BME280;50072;50.678;13.938;2024-02-15T02:49:21;99899.72;;;6.61;100.00
63903;BME280;50072;50.678;13.938;2024-02-15T02:51:53;99896.16;;;6.65;100.00
63903;BME280;50072;50.678;13.938;2024-02-15T02:54:25;99898.78;;;6.74;100.00
63903;BME280;50072;50.678;13.938;2024-02-15T02:57:12;99907.66;;;6.75;100.00
63903;BME280;50072;50.678;13.938;2024-02-15T02:59:42;99899.75;;;6.63;100.00
63903;BME280;50072;50.678;13.938;2024-02-15T03:02:12;99907.69;;;6.70;100.00
63903;BME280;50072;50.678;13.938;2024-02-15T03:04:42;99898.81;;;6.71;100.00
63903;BME280;50072;50.678;13.938;2024-02-15T03:07:12;99904.97;;;6.81;100.00
63903;BME280;50072;50.678;13.938;2024-02-15T03:12:42;99894.34;;;6.77;100.00
63903;BME280;50072;50.678;13.938;2024-02-15T03:15:13;99905.91;;;6.69;100.00
63903;BME280;50072;50.678;13.938;2024-02-15T03:17:43;99900.66;;;6.59;100.00
63903;BME280;50072;50.678;13.938;2024-02-15T03:20:12;99893.66;;;6.41;100.00
63903;BME280;50072;50.678;13.938;2024-02-15T03:22:55;99901.56;;;6.47;100.00
63903;BME280;50072;50.678;13.938;2024-02-15T03:25:25;99898.00;;;6.51;100.00
63903;BME280;50072;50.678;13.938;2024-02-15T03:27:55;99901.56;;;6.50;100.00
63903;BME280;50072;50.678;13.938;2024-02-15T03:30:25;99905.16;;;6.39;100.00
63903;BME280;50072;50.678;13.938;2024-02-15T03:33:12;99903.34;;;6.49;100.00
63903;BME280;50072;50.678;13.938;2024-02-15T03:35:44;99895.34;;;6.57;100.00
63903;BME280;50072;50.678;13.938;2024-02-15T03:38:12;99890.91;;;6.56;100.00
63903;BME280;50072;50.678;13.938;2024-02-15T03:40:38;99892.66;;;6.60;100.00
63903;BME280;50072;50.678;13.938;2024-02-15T03:43:12;99886.50;;;6.52;100.00
63903;BME280;50072;50.678;13.938;2024-02-15T03:45:42;99898.84;;;6.62;100.00
63903;BME280;50072;50.678;13.938;2024-02-15T03:48:10;99892.59;;;6.71;100.00
63903;BME280;50072;50.678;13.938;2024-02-15T03:50:37;99889.97;;;6.65;100.00
63903;BME280;50072;50.678;13.938;2024-02-15T03:53:03;99884.66;;;6.65;100.00
63903;BME280;50072;50.678;13.938;2024-02-15T03:55:30;99896.19;;;6.68;100.00
63903;BME280;50072;50.678;13.938;2024-02-15T03:58:12;99895.28;;;6.65;100.00
63903;BME280;50072;50.678;13.938;2024-02-15T04:00:42;99900.66;;;6.59;100.00
63903;BME280;50072;50.678;13.938;2024-02-15T04:03:13;99895.31;;;6.63;100.00
63903;BME280;50072;50.678;13.938;2024-02-15T04:05:42;99888.22;;;6.62;100.00
63903;BME280;50072;50.678;13.938;2024-02-15T04:08:12;99893.50;;;6.71;100.00
63903;BME280;50072;50.678;13.938;2024-02-15T04:10:44;99892.66;;;6.63;100.00
63903;BME280;50072;50.678;13.938;2024-02-15T04:13:12;99890.91;;;6.56;100.00
63903;BME280;50072;50.678;13.938;2024-02-15T04:15:42;99894.44;;;6.58;100.00
63903;BME280;50072;50.678;13.938;2024-02-15T04:18:12;99897.97;;;6.63;100.00
63903;BME280;50072;50.678;13.938;2024-02-15T04:20:44;99896.19;;;6.62;100.00
63903;BME280;50072;50.678;13.938;2024-02-15T04:23:12;99891.81;;;6.53;100.00
63903;BME280;50072;50.678;13.938;2024-02-15T04:25:42;99885.59;;;6.56;100.00
63903;BME280;50072;50.678;13.938;2024-02-15T04:28:12;99900.59;;;6.69;100.00
63903;BME280;50072;50.678;13.938;2024-02-15T04:30:42;99894.41;;;6.67;100.00
63903;BME280;50072;50.678;13.938;2024-02-15T04:33:14;99903.22;;;6.76;100.00
63903;BME280;50072;50.678;13.938;2024-02-15T04:35:42;99902.31;;;6.77;100.00
63903;BME280;50072;50.678;13.938;2024-02-15T04:38:14;99905.84;;;6.80;100.00
63903;BME280;50072;50.678;13.938;2024-02-15T04:40:42;99903.19;;;6.82;100.00
63903;BME280;50072;50.678;13.938;2024-02-15T04:43:14;99909.41;;;6.78;100.00
63903;BME280;50072;50.678;13.938;2024-02-15T04:45:42;99905.88;;;6.72;100.00
63903;BME280;50072;50.678;13.938;2024-02-15T04:48:12;99904.97;;;6.83;100.00
63903;BME280;50072;50.678;13.938;2024-02-15T04:50:53;99902.28;;;6.83;100.00
63903;BME280;50072;50.678;13.938;2024-02-15T04:53:42;99914.66;;;6.85;100.00
63903;BME280;50072;50.678;13.938;2024-02-15T04:56:12;99919.13;;;6.85;100.00
63903;BME280;50072;50.678;13.938;2024-02-15T04:58:42;99905.81;;;6.86;100.00
63903;BME280;50072;50.678;13.938;2024-02-15T05:01:14;99922.69;;;6.87;100.00
63903;BME280;50072;50.678;13.938;2024-02-15T05:03:43;99916.47;;;6.83;100.00
63903;BME280;50072;50.678;13.938;2024-02-15T05:06:10;99916.50;;;6.79;100.00
63903;BME280;50072;50.678;13.938;2024-02-15T05:08:41;99921.78;;;6.85;100.00
63903;BME280;50072;50.678;13.938;2024-02-15T05:11:12;99907.63;;;6.81;100.00
63903;BME280;50072;50.678;13.938;2024-02-15T05:13:42;99920.88;;;6.87;100.00
63903;BME280;50072;50.678;13.938;2024-02-15T05:16:08;99929.72;;;6.94;100.00
63903;BME280;50072;50.678;13.938;2024-02-15T05:18:34;99932.41;;;6.85;100.00
63903;BME280;50072;50.678;13.938;2024-02-15T05:21:01;99933.28;;;6.93;100.00
63903;BME280;50072;50.678;13.938;2024-02-15T05:23:29;99928.00;;;6.87;100.00
63903;BME280;50072;50.678;13.938;2024-02-15T05:25:56;99927.97;;;6.91;100.00
63903;BME280;50072;50.678;13.938;2024-02-15T05:28:22;99929.69;;;7.00;100.00
63903;BME280;50072;50.678;13.938;2024-02-15T05:31:15;99929.69;;;7.00;100.00
63903;BME280;50072;50.678;13.938;2024-02-15T05:33:45;99926.16;;;6.92;100.00
63903;BME280;50072;50.678;13.938;2024-02-15T05:36:17;99918.16;;;7.01;100.00
63903;BME280;50072;50.678;13.938;2024-02-15T05:38:52;99922.56;;;6.99;100.00
63903;BME280;50072;50.678;13.938;2024-02-15T05:41:20;99929.69;;;7.00;100.00
63903;BME280;50072;50.678;13.938;2024-02-15T05:43:48;99927.00;;;7.03;100.00
63903;BME280;50072;50.678;13.938;2024-02-15T05:46:14;99927.91;;;6.96;100.00
63903;BME280;50072;50.678;13.938;2024-02-15T05:48:40;99916.41;;;6.93;100.00
63903;BME280;50072;50.678;13.938;2024-02-15T05:51:09;99917.34;;;6.87;100.00
63903;BME280;50072;50.678;13.938;2024-02-15T05:53:35;99924.41;;;6.89;100.00
63903;BME280;50072;50.678;13.938;2024-02-15T05:56:07;99918.19;;;6.90;100.00
63903;BME280;50072;50.678;13.938;2024-02-15T05:58:33;99919.06;;;6.91;100.00
63903;BME280;50072;50.678;13.938;2024-02-15T06:01:12;99923.47;;;6.97;100.00
63903;BME280;50072;50.678;13.938;2024-02-15T06:03:42;99933.28;;;6.93;100.00
63903;BME280;50072;50.678;13.938;2024-02-15T06:06:12;99934.16;;;6.90;100.00
63903;BME280;50072;50.678;13.938;2024-02-15T06:08:42;99941.19;;;7.01;100.00
63903;BME280;50072;50.678;13.938;2024-02-15T06:11:12;99926.13;;;6.98;100.00
63903;BME280;50072;50.678;13.938;2024-02-15T06:13:45;99926.16;;;6.95;100.00
63903;BME280;50072;50.678;13.938;2024-02-15T06:16:12;99929.69;;;7.00;100.00
63903;BME280;50072;50.678;13.938;2024-02-15T06:18:39;99933.25;;;6.96;100.00
63903;BME280;50072;50.678;13.938;2024-02-15T06:21:12;99935.03;;;6.93;100.00
63903;BME280;50072;50.678;13.938;2024-02-15T06:23:41;99945.69;;;6.94;100.00
63903;BME280;50072;50.678;13.938;2024-02-15T06:26:10;99948.31;;;7.00;100.00
63903;BME280;50072;50.678;13.938;2024-02-15T06:28:42;99947.41;;;6.98;100.00
63903;BME280;50072;50.678;13.938;2024-02-15T06:31:42;99943.84;;;7.01;100.00
63903;BME280;50072;50.678;13.938;2024-02-15T06:34:42;99952.72;;;6.98;100.00
63903;BME280;50072;50.678;13.938;2024-02-15T06:37:42;99957.19;;;6.96;100.00
63903;BME280;50072;50.678;13.938;2024-02-15T06:40:44;99944.78;;;7.00;100.00
63903;BME280;50072;50.678;13.938;2024-02-15T06:43:12;99964.22;;;7.05;100.00
63903;BME280;50072;50.678;13.938;2024-02-15T06:45:39;99959.81;;;7.05;100.00
63903;BME280;50072;50.678;13.938;2024-02-15T06:48:12;99958.88;;;7.09;100.00
63903;BME280;50072;50.678;13.938;2024-02-15T06:50:39;99971.25;;;7.17;100.00
63903;BME280;50072;50.678;13.938;2024-02-15T06:53:10;99968.59;;;7.20;100.00
63903;BME280;50072;50.678;13.938;2024-02-15T06:55:42;99986.31;;;7.24;100.00
63903;BME280;50072;50.678;13.938;2024-02-15T06:58:15;99982.78;;;7.20;100.00
63903;BME280;50072;50.678;13.938;2024-02-15T07:00:41;99981.91;;;7.15;100.00
63903;BME280;50072;50.678;13.938;2024-02-15T07:03:12;99967.75;;;7.13;100.00
63903;BME280;50072;50.678;13.938;2024-02-15T07:05:39;99966.78;;;7.22;100.00
63903;BME280;50072;50.678;13.938;2024-02-15T07:08:12;99965.06;;;7.15;100.00
63903;BME280;50072;50.678;13.938;2024-02-15T07:10:42;99957.16;;;7.05;100.00
63903;BME280;50072;50.678;13.938;2024-02-15T07:13:08;99975.69;;;7.18;100.00
63903;BME280;50072;50.678;13.938;2024-02-15T07:15:37;99977.47;;;7.19;100.00
63903;BME280;50072;50.678;13.938;2024-02-15T07:18:08;99972.13;;;7.19;100.00
63903;BME280;50072;50.678;13.938;2024-02-15T07:20:34;99978.34;;;7.19;100.00
63903;BME280;50072;50.678;13.938;2024-02-15T07:23:02;99973.91;;;7.20;100.00
63903;BME280;50072;50.678;13.938;2024-02-15T07:25:30;99967.72;;;7.16;100.00
63903;BME280;50072;50.678;13.938;2024-02-15T07:27:57;99974.81;;;7.17;100.00
63903;BME280;50072;50.678;13.938;2024-02-15T07:30:24;99970.41;;;7.12;100.00
63903;BME280;50072;50.678;13.938;2024-02-15T07:32:51;99965.06;;;7.15;100.00
63903;BME280;50072;50.678;13.938;2024-02-15T07:35:19;99962.47;;;7.07;100.00
63903;BME280;50072;50.678;13.938;2024-02-15T07:37:52;99960.59;;;7.23;100.00
63903;BME280;50072;50.678;13.938;2024-02-15T07:40:21;99949.06;;;7.19;100.00
63903;BME280;50072;50.678;13.938;2024-02-15T07:42:49;99970.31;;;7.27;100.00
63903;BME280;50072;50.678;13.938;2024-02-15T07:45:16;99960.50;;;7.34;100.00
63903;BME280;50072;50.678;13.938;2024-02-15T07:47:43;99971.94;;;7.45;100.00
63903;BME280;50072;50.678;13.938;2024-02-15T07:50:17;99966.53;;;7.59;100.00
63903;BME280;50072;50.678;13.938;2024-02-15T07:52:48;99968.28;;;7.60;100.00
63903;BME280;50072;50.678;13.938;2024-02-15T07:55:14;99961.09;;;7.71;100.00
63903;BME280;50072;50.678;13.938;2024-02-15T07:57:41;99959.28;;;7.75;100.00
63903;BME280;50072;50.678;13.938;2024-02-15T08:00:07;99959.22;;;7.83;100.00
63903;BME280;50072;50.678;13.938;2024-02-15T08:02:38;99961.94;;;7.80;100.00
63903;BME280;50072;50.678;13.938;2024-02-15T08:05:11;99962.84;;;7.75;100.00
63903;BME280;50072;50.678;13.938;2024-02-15T08:07:42;99973.50;;;7.72;100.00
63903;BME280;50072;50.678;13.938;2024-02-15T08:10:11;99968.19;;;7.75;100.00
63903;BME280;50072;50.678;13.938;2024-02-15T08:12:45;99962.72;;;7.86;100.00
63903;BME280;50072;50.678;13.938;2024-02-15T08:15:14;99956.50;;;7.87;100.00
63903;BME280;50072;50.678;13.938;2024-02-15T08:17:44;99960.03;;;7.88;100.00
63903;BME280;50072;50.678;13.938;2024-02-15T08:20:16;99969.75;;;7.95;100.00
63903;BME280;50072;50.678;13.938;2024-02-15T08:22:49;99967.94;;;8.00;100.00
63903;BME280;50072;50.678;13.938;2024-02-15T08:25:17;99959.94;;;8.00;100.00
63903;BME280;50072;50.678;13.938;2024-02-15T08:27:47;99955.56;;;7.94;100.00
63903;BME280;50072;50.678;13.938;2024-02-15T08:30:15;99967.06;;;7.97;100.00
63903;BME280;50072;50.678;13.938;2024-02-15T08:32:42;99963.50;;;7.98;100.00
63903;BME280;50072;50.678;13.938;2024-02-15T08:35:12;99967.97;;;7.97;100.00
63903;BME280;50072;50.678;13.938;2024-02-15T08:37:41;99966.16;;;7.99;100.00
63903;BME280;50072;50.678;13.938;2024-02-15T08:40:09;99956.25;;;8.12;100.00
63903;BME280;50072;50.678;13.938;2024-02-15T08:42:41;99949.13;;;8.14;100.00
63903;BME280;50072;50.678;13.938;2024-02-15T08:45:08;99960.59;;;8.24;100.00
63903;BME280;50072;50.678;13.938;2024-02-15T08:47:39;99948.94;;;8.33;100.00
63903;BME280;50072;50.678;13.938;2024-02-15T08:50:08;99948.91;;;8.36;100.00
63903;BME280;50072;50.678;13.938;2024-02-15T08:52:38;99951.50;;;8.40;100.00
63903;BME280;50072;50.678;13.938;2024-02-15T08:55:05;99958.53;;;8.51;100.00
63903;BME280;50072;50.678;13.938;2024-02-15T08:57:34;99963.84;;;8.54;100.00
63903;BME280;50072;50.678;13.938;2024-02-15T09:00:01;99962.03;;;8.56;100.00
63903;BME280;50072;50.678;13.938;2024-02-15T09:02:32;99959.34;;;8.57;100.00
63903;BME280;50072;50.678;13.938;2024-02-15T09:04:58;99963.72;;;8.63;100.00
63903;BME280;50072;50.678;13.938;2024-02-15T09:07:27;99958.56;;;8.48;100.00
63903;BME280;50072;50.678;13.938;2024-02-15T09:09:57;99956.72;;;8.54;100.00
63903;BME280;50072;50.678;13.938;2024-02-15T09:12:24;99963.72;;;8.63;100.00
63903;BME280;50072;50.678;13.938;2024-02-15T09:14:52;99961.91;;;8.63;100.00
63903;BME280;50072;50.678;13.938;2024-02-15T09:17:19;99962.81;;;8.64;100.00
63903;BME280;50072;50.678;13.938;2024-02-15T09:19:47;99969.09;;;8.60;100.00
63903;BME280;50072;50.678;13.938;2024-02-15T09:22:15;99972.66;;;8.59;100.00
63903;BME280;50072;50.678;13.938;2024-02-15T09:24:41;99974.50;;;8.55;100.00
63903;BME280;50072;50.678;13.938;2024-02-15T09:27:08;99971.91;;;8.46;100.00
63903;BME280;50072;50.678;13.938;2024-02-15T09:29:35;99963.91;;;8.48;100.00
63903;BME280;50072;50.678;13.938;2024-02-15T09:32:03;99969.19;;;8.51;100.00
63903;BME280;50072;50.678;13.938;2024-02-15T09:34:29;99966.59;;;8.46;100.00
63903;BME280;50072;50.678;13.938;2024-02-15T09:36:56;99977.19;;;8.51;100.00
63903;BME280;50072;50.678;13.938;2024-02-15T09:39:22;99976.28;;;8.53;100.00
63903;BME280;50072;50.678;13.938;2024-02-15T09:41:49;99981.50;;;8.64;100.00
63903;BME280;50072;50.678;13.938;2024-02-15T09:44:21;99986.91;;;8.59;100.00
63903;BME280;50072;50.678;13.938;2024-02-15T09:46:57;99977.09;;;8.61;100.00
63903;BME280;50072;50.678;13.938;2024-02-15T09:49:26;99981.38;;;8.73;100.00
63903;BME280;50072;50.678;13.938;2024-02-15T09:51:54;99989.22;;;8.86;100.00
63903;BME280;50072;50.678;13.938;2024-02-15T09:54:21;99982.88;;;8.96;100.00
63903;BME280;50072;50.678;13.938;2024-02-15T09:56:54;99982.81;;;9.02;100.00
63903;BME280;50072;50.678;13.938;2024-02-15T09:59:21;99975.53;;;9.10;100.00
63903;BME280;50072;50.678;13.938;2024-02-15T10:01:48;99972.78;;;9.18;100.00
63903;BME280;50072;50.678;13.938;2024-02-15T10:04:15;99980.72;;;9.23;100.00
63903;BME280;50072;50.678;13.938;2024-02-15T10:06:42;99974.47;;;9.25;100.00
63903;BME280;50072;50.678;13.938;2024-02-15T10:11:56;99972.31;;;9.47;100.00
63903;BME280;50072;50.678;13.938;2024-02-15T10:14:28;99975.66;;;9.62;100.00
63903;BME280;50072;50.678;13.938;2024-02-15T10:16:55;99956.88;;;9.68;100.00
63903;BME280;50072;50.678;13.938;2024-02-15T10:19:23;99976.94;;;9.92;100.00
63903;BME280;50072;50.678;13.938;2024-02-15T10:21:52;99974.25;;;9.94;100.00
63903;BME280;50072;50.678;13.938;2024-02-15T10:24:23;99965.09;;;10.06;100.00
63903;BME280;50072;50.678;13.938;2024-02-15T10:26:51;99965.03;;;10.10;100.00
63903;BME280;50072;50.678;13.938;2024-02-15T10:29:19;99971.31;;;10.09;100.00
63903;BME280;50072;50.678;13.938;2024-02-15T10:31:54;99972.91;;;10.18;100.00
63903;BME280;50072;50.678;13.938;2024-02-15T10:34:22;99969.34;;;10.17;100.00
63903;BME280;50072;50.678;13.938;2024-02-15T10:36:49;99963.31;;;10.08;100.00
63903;BME280;50072;50.678;13.938;2024-02-15T10:39:20;99959.56;;;10.16;100.00
63903;BME280;50072;50.678;13.938;2024-02-15T10:41:53;99956.72;;;10.26;100.00
63903;BME280;50072;50.678;13.938;2024-02-15T10:44:21;99946.72;;;10.37;100.00
63903;BME280;50072;50.678;13.938;2024-02-15T10:46:51;99945.63;;;10.49;100.00
63903;BME280;50072;50.678;13.938;2024-02-15T10:49:22;99948.19;;;10.53;100.00
63903;BME280;50072;50.678;13.938;2024-02-15T10:51:58;99942.84;;;10.53;100.00
63903;BME280;50072;50.678;13.938;2024-02-15T10:57:04;99931.09;;;10.61;100.00
63903;BME280;50072;50.678;13.938;2024-02-15T10:59:34;99943.53;;;10.63;100.00
63903;BME280;50072;50.678;13.938;2024-02-15T11:02:28;99944.25;;;10.70;100.00
63903;BME280;50072;50.678;13.938;2024-02-15T11:05:08;99941.53;;;10.73;100.00
63903;BME280;50072;50.678;13.938;2024-02-15T11:07:36;99944.84;;;10.84;100.00
63903;BME280;50072;50.678;13.938;2024-02-15T11:10:13;99931.38;;;10.89;100.00
63903;BME280;50072;50.678;13.938;2024-02-15T11:12:43;99928.38;;;11.04;100.00
63903;BME280;50072;50.678;13.938;2024-02-15T11:15:46;99933.22;;;11.26;100.00
63903;BME280;50072;50.678;13.938;2024-02-15T11:18:52;99927.56;;;11.37;100.00
63903;BME280;50072;50.678;13.938;2024-02-15T11:21:54;99926.38;;;11.50;100.00
63903;BME280;50072;50.678;13.938;2024-02-15T11:24:34;99920.94;;;11.53;100.00
63903;BME280;50072;50.678;13.938;2024-02-15T11:27:12;99915.09;;;11.72;100.00
63903;BME280;50072;50.678;13.938;2024-02-15T11:29:53;99906.22;;;11.70;100.00
63903;BME280;50072;50.678;13.938;2024-02-15T11:32:43;99920.91;;;11.89;100.00
63903;BME280;50072;50.678;13.938;2024-02-15T11:35:13;99916.34;;;11.95;100.00
63903;BME280;50072;50.678;13.938;2024-02-15T11:37:56;99909.75;;;12.06;100.00
63903;BME280;50072;50.678;13.938;2024-02-15T11:46:28;99910.56;;;12.10;100.00
63903;BME280;50072;50.678;13.938;2024-02-15T11:48:59;99907.03;;;12.08;100.00
63903;BME280;50072;50.678;13.938;2024-02-15T11:51:42;99910.47;;;12.13;100.00
63903;BME280;50072;50.678;13.938;2024-02-15T11:54:12;99909.00;;;12.34;100.00
63903;BME280;50072;50.678;13.938;2024-02-15T11:56:55;99908.47;;;12.53;100.00
63903;BME280;50072;50.678;13.938;2024-02-15T11:59:43;99901.19;;;12.86;100.00
63903;BME280;50072;50.678;13.938;2024-02-15T12:02:42;99902.00;;;13.18;100.00
63903;BME280;50072;50.678;13.938;2024-02-15T12:05:42;99907.75;;;13.06;100.00
63903;BME280;50072;50.678;13.938;2024-02-15T12:08:46;99911.72;;;12.64;100.00
63903;BME280;50072;50.678;13.938;2024-02-15T12:11:42;99902.91;;;12.59;100.00
63903;BME280;50072;50.678;13.938;2024-02-15T12:14:42;99898.94;;;12.41;100.00
63903;BME280;50072;50.678;13.938;2024-02-15T12:17:37;99897.00;;;12.46;100.00
63903;BME280;50072;50.678;13.938;2024-02-15T12:20:24;99893.06;;;12.28;100.00
63903;BME280;50072;50.678;13.938;2024-02-15T12:22:56;99890.41;;;12.26;100.00
63903;BME280;50072;50.678;13.938;2024-02-15T12:25:24;99894.09;;;12.22;100.00
63903;BME280;50072;50.678;13.938;2024-02-15T12:27:56;99887.59;;;12.31;100.00
63903;BME280;50072;50.678;13.938;2024-02-15T12:30:32;99889.69;;;12.53;100.00
63903;BME280;50072;50.678;13.938;2024-02-15T12:33:13;99887.56;;;12.64;100.00
63903;BME280;50072;50.678;13.938;2024-02-15T12:36:12;99891.09;;;12.65;100.00
63903;BME280;50072;50.678;13.938;2024-02-15T12:38:42;99884.06;;;12.60;100.00
63903;BME280;50072;50.678;13.938;2024-02-15T12:41:24;99887.06;;;12.50;100.00
63903;BME280;50072;50.678;13.938;2024-02-15T12:44:12;99887.81;;;12.23;100.00
63903;BME280;50072;50.678;13.938;2024-02-15T12:46:42;99876.25;;;12.21;100.00
63903;BME280;50072;50.678;13.938;2024-02-15T12:55:18;99873.94;;;12.99;100.00
63903;BME280;50072;50.678;13.938;2024-02-15T12:57:54;99875.13;;;13.18;100.00
63903;BME280;50072;50.678;13.938;2024-02-15T13:00:26;99873.94;;;13.27;100.00
63903;BME280;50072;50.678;13.938;2024-02-15T13:03:12;99870.63;;;13.19;100.00
63903;BME280;50072;50.678;13.938;2024-02-15T13:05:42;99868.31;;;13.06;100.00
63903;BME280;50072;50.678;13.938;2024-02-15T13:08:12;99863.97;;;13.02;100.00
63903;BME280;50072;50.678;13.938;2024-02-15T13:10:42;99852.03;;;13.11;100.00
63903;BME280;50072;50.678;13.938;2024-02-15T13:13:14;99841.00;;;13.20;100.00
63903;BME280;50072;50.678;13.938;2024-02-15T13:15:42;99846.59;;;13.41;100.00
63903;BME280;50072;50.678;13.938;2024-02-15T13:18:12;99839.06;;;13.52;100.00
63903;BME280;50072;50.678;13.938;2024-02-15T13:20:42;99845.22;;;13.56;100.00
63903;BME280;50072;50.678;13.938;2024-02-15T13:23:11;99841.22;;;13.41;100.00
63903;BME280;50072;50.678;13.938;2024-02-15T13:25:59;99841.22;;;13.41;100.00
63903;BME280;50072;50.678;13.938;2024-02-15T13:28:42;99843.25;;;13.34;100.00
63903;BME280;50072;50.678;13.938;2024-02-15T13:31:12;99848.19;;;13.20;100.00
63903;BME280;50072;50.678;13.938;2024-02-15T13:33:40;99850.63;;;12.99;100.00